Time,TemperatureF,DewpointF,PressureIn,WindDirection,WindDirectionDegrees,WindSpeedMPH,WindSpeedGustMPH,Humidity,HourlyPrecipIn,Conditions,Clouds,dailyrainin,SoftwareType,DateUTC
2013-11-05 00:00:00,41.4,23.7,30.51,ENE,68,2.0,0.0,49,0.00,,BKN230,0.00,VWS V14.01,2013-11-05 05:00:00,
2013-11-05 00:01:00,41.4,23.7,30.51,ENE,68,2.0,0.0,49,0.00,,BKN230,0.00,VWS V14.01,2013-11-05 05:01:00,
2013-11-05 00:02:00,41.4,23.7,30.51,NE,45,2.9,2.9,49,0.00,,BKN230,0.00,VWS V14.01,2013-11-05 05:02:00,
2013-11-05 00:07:00,41.4,23.7,30.51,NNE,22,2.4,2.4,49,0.00,,BKN230,0.00,VWS V14.01,2013-11-05 05:07:00,
2013-11-05 00:12:00,41.4,22.2,30.51,ENE,68,2.0,0.0,46,0.00,,BKN230,0.00,VWS V14.01,2013-11-05 05:12:00,
2013-11-05 00:17:00,41.2,22.5,30.50,ENE,68,2.0,0.0,47,0.00,,BKN230,0.00,VWS V14.01,2013-11-05 05:17:00,
2013-11-05 00:22:00,40.9,22.7,30.50,ENE,68,2.0,0.0,48,0.00,,BKN230,0.00,VWS V14.01,2013-11-05 05:22:00,
2013-11-05 00:27:00,40.7,22.5,30.50,ENE,68,2.0,0.0,48,0.00,,BKN230,0.00,VWS V14.01,2013-11-05 05:27:00,
2013-11-05 00:32:00,40.3,22.2,30.49,ENE,68,2.0,0.0,48,0.00,,BKN230,0.00,VWS V14.01,2013-11-05 05:32:00,
2013-11-05 00:37:00,40.1,21.5,30.50,NE,45,2.0,0.0,47,0.00,,BKN230,0.00,VWS V14.01,2013-11-05 05:37:00,
2013-11-05 00:42:00,40.0,21.4,30.50,NE,45,2.0,0.0,47,0.00,,BKN230,0.00,VWS V14.01,2013-11-05 05:42:00,
2013-11-05 00:47:00,40.0,20.9,30.50,NE,45,2.0,0.0,46,0.00,,BKN230,0.00,VWS V14.01,2013-11-05 05:47:00,
2013-11-05 00:52:00,39.8,20.7,30.50,NE,45,2.0,0.0,46,0.00,,BKN230,0.00,VWS V14.01,2013-11-05 05:52:00,
2013-11-05 00:57:00,39.8,20.7,30.51,NE,45,2.0,0.0,46,0.00,,BKN230,0.00,VWS V14.01,2013-11-05 05:57:00,
2013-11-05 01:02:00,39.6,20.5,30.51,NE,45,2.0,0.0,46,0.00,,BKN230,0.00,VWS V14.01,2013-11-05 06:02:00,
2013-11-05 01:07:00,39.2,19.7,30.51,NE,45,2.0,0.0,45,0.00,,BKN230,0.00,VWS V14.01,2013-11-05 06:07:00,
2013-11-05 01:12:00,39.2,19.1,30.50,NE,45,2.0,0.0,44,0.00,,BKN230,0.00,VWS V14.01,2013-11-05 06:12:00,
2013-11-05 01:17:00,39.1,18.5,30.50,NE,45,2.0,0.0,43,0.00,,BKN230,0.00,VWS V14.01,2013-11-05 06:17:00,
2013-11-05 01:22:00,38.7,18.7,30.50,NE,45,2.0,0.0,44,0.00,,BKN230,0.00,VWS V14.01,2013-11-05 06:22:00,
2013-11-05 01:27:00,38.5,18.0,30.51,NE,45,2.0,0.0,43,0.00,,BKN230,0.00,VWS V14.01,2013-11-05 06:27:00,
2013-11-05 01:32:00,38.5,15.7,30.50,NE,45,2.0,0.0,39,0.00,,BKN230,0.00,VWS V14.01,2013-11-05 06:32:00,
2013-11-05 01:37:00,38.5,16.3,30.51,NE,45,2.0,0.0,40,0.00,,BKN230,0.00,VWS V14.01,2013-11-05 06:37:00,
2013-11-05 01:42:00,38.5,15.7,30.51,NE,45,2.0,0.0,39,0.00,,BKN230,0.00,VWS V14.01,2013-11-05 06:42:00,
2013-11-05 01:47:00,38.5,13.9,30.50,NE,45,2.0,0.0,36,0.00,,BKN230,0.00,VWS V14.01,2013-11-05 06:47:00,
2013-11-05 01:52:00,38.3,14.9,30.50,NE,45,2.0,0.0,38,0.00,,BKN230,0.00,VWS V14.01,2013-11-05 06:52:00,
2013-11-05 01:57:00,38.0,14.7,30.50,NE,45,2.0,0.0,38,0.00,,OVC250,0.00,VWS V14.01,2013-11-05 06:57:00,
2013-11-05 02:02:00,37.8,14.5,30.50,NE,45,2.0,0.0,38,0.00,,OVC250,0.00,VWS V14.01,2013-11-05 07:02:00,
2013-11-05 02:07:00,37.8,13.9,30.50,NE,45,2.0,0.0,37,0.00,,OVC250,0.00,VWS V14.01,2013-11-05 07:07:00,
2013-11-05 02:12:00,37.8,13.3,30.50,NE,45,2.0,0.0,36,0.00,,OVC250,0.00,VWS V14.01,2013-11-05 07:12:00,
2013-11-05 02:17:00,37.8,12.6,30.50,NE,45,2.0,0.0,35,0.00,,OVC250,0.00,VWS V14.01,2013-11-05 07:17:00,
2013-11-05 02:22:00,37.8,12.6,30.50,NE,45,2.0,0.0,35,0.00,,OVC250,0.00,VWS V14.01,2013-11-05 07:22:00,
2013-11-05 02:27:00,37.8,12.6,30.50,NE,45,2.0,0.0,35,0.00,,OVC250,0.00,VWS V14.01,2013-11-05 07:27:00,
2013-11-05 02:32:00,37.8,12.6,30.51,NE,45,2.0,0.0,35,0.00,,OVC250,0.00,VWS V14.01,2013-11-05 07:32:00,
2013-11-05 02:37:00,37.4,12.3,30.50,NE,45,2.0,0.0,35,0.00,,OVC250,0.00,VWS V14.01,2013-11-05 07:37:00,
2013-11-05 02:42:00,37.1,12.0,30.50,NE,45,2.0,0.0,35,0.00,,OVC250,0.00,VWS V14.01,2013-11-05 07:42:00,
2013-11-05 02:47:00,37.1,10.7,30.50,NE,45,2.0,0.0,33,0.00,,OVC250,0.00,VWS V14.01,2013-11-05 07:47:00,
2013-11-05 02:52:00,36.9,11.8,30.50,NE,45,2.0,0.0,35,0.00,,OVC250,0.00,VWS V14.01,2013-11-05 07:52:00,
2013-11-05 02:57:00,36.7,11.0,30.50,NE,45,2.0,0.0,34,0.00,,BKN250,0.00,VWS V14.01,2013-11-05 07:57:00,
2013-11-05 03:02:00,36.5,8.8,30.50,NE,45,2.0,0.0,31,0.00,,BKN250,0.00,VWS V14.01,2013-11-05 08:02:00,
2013-11-05 03:07:00,36.5,8.0,30.50,NE,45,2.0,0.0,30,0.00,,BKN250,0.00,VWS V14.01,2013-11-05 08:07:00,
2013-11-05 03:12:00,36.7,8.2,30.50,ENE,68,2.0,0.0,30,0.00,,BKN250,0.00,VWS V14.01,2013-11-05 08:12:00,
2013-11-05 03:17:00,36.7,8.2,30.51,ENE,68,2.0,0.0,30,0.00,,BKN250,0.00,VWS V14.01,2013-11-05 08:17:00,
2013-11-05 03:22:00,36.7,8.2,30.51,ENE,68,2.0,0.0,30,0.00,,BKN250,0.00,VWS V14.01,2013-11-05 08:22:00,
2013-11-05 03:27:00,36.5,6.5,30.50,ENE,68,2.0,0.0,28,0.00,,BKN250,0.00,VWS V14.01,2013-11-05 08:27:00,
2013-11-05 03:32:00,36.4,7.2,30.50,ENE,68,2.0,0.0,29,0.00,,BKN250,0.00,VWS V14.01,2013-11-05 08:32:00,
2013-11-05 03:37:00,36.4,5.6,30.50,NE,45,2.0,0.0,27,0.00,,BKN250,0.00,VWS V14.01,2013-11-05 08:37:00,
2013-11-05 03:42:00,36.5,5.7,30.50,ESE,112,2.0,0.0,27,0.00,,BKN250,0.00,VWS V14.01,2013-11-05 08:42:00,
2013-11-05 03:47:00,36.4,5.6,30.50,ESE,112,2.0,0.0,27,0.00,,BKN250,0.00,VWS V14.01,2013-11-05 08:47:00,
2013-11-05 03:52:00,36.4,3.1,30.51,ESE,112,2.0,0.0,24,0.00,,BKN250,0.00,VWS V14.01,2013-11-05 08:52:00,
2013-11-05 03:57:00,36.4,5.6,30.51,ESE,112,2.0,0.0,27,0.00,,SCT250,0.00,VWS V14.01,2013-11-05 08:57:00,
2013-11-05 04:02:00,36.4,5.6,30.51,ESE,112,2.0,0.0,27,0.00,,SCT250,0.00,VWS V14.01,2013-11-05 09:02:00,
2013-11-05 04:07:00,36.5,3.2,30.51,ESE,112,2.0,0.0,24,0.00,,SCT250,0.00,VWS V14.01,2013-11-05 09:07:00,
2013-11-05 04:12:00,36.7,4.2,30.51,ESE,112,2.0,0.0,25,0.00,,SCT250,0.00,VWS V14.01,2013-11-05 09:12:00,
2013-11-05 04:17:00,36.9,4.4,30.51,ESE,112,2.0,0.0,25,0.00,,SCT250,0.00,VWS V14.01,2013-11-05 09:17:00,
2013-11-05 04:22:00,36.7,5.1,30.51,ESE,112,2.0,0.0,26,0.00,,SCT250,0.00,VWS V14.01,2013-11-05 09:22:00,
2013-11-05 04:26:00,36.9,-0.4,30.51,ESE,112,2.0,0.0,20,0.00,,SCT250,0.00,VWS V14.01,2013-11-05 09:26:00,
2013-11-05 04:31:00,36.9,0.6,30.51,SE,135,2.0,0.0,21,0.00,,SCT250,0.00,VWS V14.01,2013-11-05 09:31:00,
2013-11-05 04:36:00,37.1,-0.2,30.51,SE,135,2.0,0.0,20,0.00,,SCT250,0.00,VWS V14.01,2013-11-05 09:36:00,
2013-11-05 04:41:00,37.4,-1.1,30.51,SE,135,2.0,0.0,19,0.00,,SCT250,0.00,VWS V14.01,2013-11-05 09:41:00,
2013-11-05 04:46:00,37.8,0.3,30.52,SE,135,2.0,0.0,20,0.00,,SCT250,0.00,VWS V14.01,2013-11-05 09:46:00,
2013-11-05 04:51:00,38.2,0.7,30.51,NE,45,3.1,3.1,20,0.00,,SCT250,0.00,VWS V14.01,2013-11-05 09:51:00,
2013-11-05 04:56:00,38.9,-9.4,30.51,East,90,2.0,0.0,12,0.00,,OVC250,0.00,VWS V14.01,2013-11-05 09:56:00,
2013-11-05 05:01:00,39.4,-1.8,30.51,NNW,338,3.1,3.1,17,0.00,,OVC250,0.00,VWS V14.01,2013-11-05 10:01:00,
2013-11-05 05:06:00,40.0,4.2,30.52,ENE,68,2.4,2.4,22,0.00,,OVC250,0.00,VWS V14.01,2013-11-05 10:06:00,
2013-11-05 05:11:00,40.5,7.5,30.52,ENE,68,2.2,2.2,25,0.00,,OVC250,0.00,VWS V14.01,2013-11-05 10:11:00,
2013-11-05 05:16:00,40.9,14.7,30.52,ENE,68,4.0,4.0,34,0.00,,OVC250,0.00,VWS V14.01,2013-11-05 10:16:00,
2013-11-05 05:21:00,41.2,19.3,30.52,NNE,22,4.5,4.5,41,0.00,,OVC250,0.00,VWS V14.01,2013-11-05 10:21:00,
2013-11-05 05:26:00,41.4,18.3,30.52,NNE,22,4.0,4.0,39,0.00,,OVC250,0.00,VWS V14.01,2013-11-05 10:26:00,
2013-11-05 05:31:00,41.6,19.1,30.51,NE,45,3.8,3.8,40,0.00,,OVC250,0.00,VWS V14.01,2013-11-05 10:31:00,
2013-11-05 05:36:00,41.8,20.4,30.52,ENE,68,2.9,2.9,42,0.00,,OVC250,0.00,VWS V14.01,2013-11-05 10:36:00,
2013-11-05 05:41:00,41.9,21.0,30.51,ENE,68,2.4,2.4,43,0.00,,OVC250,0.00,VWS V14.01,2013-11-05 10:41:00,
2013-11-05 05:46:00,42.1,21.2,30.51,East,90,2.0,0.0,43,0.00,,OVC250,0.00,VWS V14.01,2013-11-05 10:46:00,
2013-11-05 05:51:00,42.1,21.8,30.50,ENE,68,2.4,2.4,44,0.00,,OVC250,0.00,VWS V14.01,2013-11-05 10:51:00,
2013-11-05 05:56:00,42.1,21.8,30.51,NNE,22,3.1,3.1,44,0.00,,OVC022,0.00,VWS V14.01,2013-11-05 10:56:00,
2013-11-05 06:02:00,42.1,22.3,30.51,ENE,68,2.4,2.4,45,0.00,,OVC022,0.00,VWS V14.01,2013-11-05 11:02:00,
2013-11-05 06:07:00,42.1,22.3,30.51,NNE,22,2.0,2.0,45,0.00,,OVC022,0.00,VWS V14.01,2013-11-05 11:07:00,
2013-11-05 06:12:00,42.3,22.5,30.52,NNE,22,2.4,2.4,45,0.00,,OVC022,0.00,VWS V14.01,2013-11-05 11:12:00,
2013-11-05 06:17:00,42.3,22.5,30.51,NE,45,2.2,2.2,45,0.00,,OVC022,0.00,VWS V14.01,2013-11-05 11:17:00,
2013-11-05 06:22:00,42.3,22.5,30.51,ESE,112,3.8,3.8,45,0.00,,OVC022,0.00,VWS V14.01,2013-11-05 11:22:00,
2013-11-05 06:27:00,42.3,22.5,30.51,NNE,22,2.4,2.4,45,0.00,,OVC022,0.00,VWS V14.01,2013-11-05 11:27:00,
2013-11-05 06:32:00,42.3,22.5,30.51,NE,45,3.6,3.6,45,0.00,,OVC022,0.00,VWS V14.01,2013-11-05 11:32:00,
2013-11-05 06:37:00,42.5,22.7,30.51,ENE,68,3.3,3.3,45,0.00,,OVC022,0.00,VWS V14.01,2013-11-05 11:37:00,
2013-11-05 06:42:00,42.5,22.7,30.51,NE,45,2.2,2.2,45,0.00,,OVC022,0.00,VWS V14.01,2013-11-05 11:42:00,
2013-11-05 06:47:00,42.5,22.7,30.51,NNE,22,2.9,2.9,45,0.00,,OVC022,0.00,VWS V14.01,2013-11-05 11:47:00,
2013-11-05 06:52:00,42.7,22.9,30.51,ENE,68,2.4,2.4,45,0.00,,OVC022,0.00,VWS V14.01,2013-11-05 11:52:00,
2013-11-05 06:57:00,42.7,23.4,30.52,ENE,68,2.0,0.0,46,0.00,,OVC250,0.00,VWS V14.01,2013-11-05 11:57:00,
2013-11-05 07:02:00,42.7,22.9,30.52,NNW,338,2.2,2.2,45,0.00,,OVC250,0.00,VWS V14.01,2013-11-05 12:02:00,
2013-11-05 07:07:00,42.8,23.0,30.52,ENE,68,2.2,2.2,45,0.00,,OVC250,0.00,VWS V14.01,2013-11-05 12:07:00,
2013-11-05 07:12:00,42.8,23.5,30.52,NE,45,5.8,5.8,46,0.00,,OVC250,0.00,VWS V14.01,2013-11-05 12:12:00,
2013-11-05 07:17:00,43.0,23.6,30.52,East,90,2.0,0.0,46,0.00,,OVC250,0.00,VWS V14.01,2013-11-05 12:17:00,
2013-11-05 07:22:00,43.0,23.6,30.52,West,270,2.2,2.2,46,0.00,,OVC250,0.00,VWS V14.01,2013-11-05 12:22:00,
2013-11-05 07:27:00,43.2,23.8,30.52,NE,45,3.1,3.1,46,0.00,,OVC250,0.00,VWS V14.01,2013-11-05 12:27:00,
2013-11-05 07:32:00,43.4,24.0,30.52,NE,45,2.9,2.9,46,0.00,,OVC250,0.00,VWS V14.01,2013-11-05 12:32:00,
2013-11-05 07:37:00,43.6,24.2,30.52,NE,45,3.6,3.6,46,0.00,,OVC250,0.00,VWS V14.01,2013-11-05 12:37:00,
2013-11-05 07:42:00,43.6,24.7,30.52,NE,45,4.5,4.5,47,0.00,,OVC250,0.00,VWS V14.01,2013-11-05 12:42:00,
2013-11-05 07:47:00,43.6,24.7,30.52,NE,45,2.7,2.7,47,0.00,,OVC250,0.00,VWS V14.01,2013-11-05 12:47:00,
2013-11-05 07:52:00,43.7,24.8,30.53,North,0,2.2,2.2,47,0.00,,OVC250,0.00,VWS V14.01,2013-11-05 12:52:00,
2013-11-05 07:57:00,43.7,24.3,30.53,ENE,68,2.2,2.2,46,0.00,,OVC024,0.00,VWS V14.01,2013-11-05 12:57:00,
2013-11-05 08:02:00,43.9,24.5,30.53,ENE,68,2.2,2.2,46,0.00,,OVC024,0.00,VWS V14.01,2013-11-05 13:02:00,
2013-11-05 08:07:00,44.1,24.7,30.54,ENE,68,3.6,3.6,46,0.00,,OVC024,0.00,VWS V14.01,2013-11-05 13:07:00,
2013-11-05 08:12:00,44.3,25.4,30.54,ENE,68,2.9,2.9,47,0.00,,OVC024,0.00,VWS V14.01,2013-11-05 13:12:00,
2013-11-05 08:17:00,44.5,25.5,30.54,ENE,68,6.3,6.3,47,0.00,,OVC024,0.00,VWS V14.01,2013-11-05 13:17:00,
2013-11-05 08:22:00,44.6,25.6,30.54,NNE,22,2.7,2.7,47,0.00,,OVC024,0.00,VWS V14.01,2013-11-05 13:22:00,
2013-11-05 08:27:00,44.6,26.1,30.54,ENE,68,2.7,2.7,48,0.00,,OVC024,0.00,VWS V14.01,2013-11-05 13:27:00,
2013-11-05 08:32:00,44.8,26.8,30.54,WNW,292,2.7,2.7,49,0.00,,OVC024,0.00,VWS V14.01,2013-11-05 13:32:00,
2013-11-05 08:37:00,45.0,27.5,30.54,SSW,202,2.4,2.4,50,0.00,,OVC024,0.00,VWS V14.01,2013-11-05 13:37:00,
2013-11-05 08:42:00,45.2,27.7,30.54,NW,315,2.4,2.4,50,0.00,,OVC024,0.00,VWS V14.01,2013-11-05 13:42:00,
2013-11-05 08:47:00,45.4,28.4,30.54,ESE,112,4.5,4.5,51,0.00,,OVC024,0.00,VWS V14.01,2013-11-05 13:47:00,
2013-11-05 08:52:00,45.4,27.9,30.54,NNE,22,3.1,3.1,50,0.00,,OVC024,0.00,VWS V14.01,2013-11-05 13:52:00,
2013-11-05 08:57:00,45.7,28.1,30.54,SE,135,3.3,3.3,50,0.00,,OVC024,0.00,VWS V14.01,2013-11-05 13:57:00,
2013-11-05 09:02:00,46.1,29.0,30.54,NE,45,2.2,2.2,51,0.00,,OVC024,0.00,VWS V14.01,2013-11-05 14:02:00,
2013-11-05 09:07:00,46.4,29.8,30.54,North,0,3.1,3.1,52,0.00,,OVC024,0.00,VWS V14.01,2013-11-05 14:07:00,
2013-11-05 09:12:00,47.0,31.2,30.54,WNW,292,5.1,5.1,54,0.00,,OVC024,0.00,VWS V14.01,2013-11-05 14:12:00,
2013-11-05 09:17:00,47.3,31.5,30.54,North,0,4.2,4.2,54,0.00,,OVC024,0.00,VWS V14.01,2013-11-05 14:17:00,
2013-11-05 09:22:00,47.7,31.9,30.54,NW,315,2.9,2.9,54,0.00,,OVC024,0.00,VWS V14.01,2013-11-05 14:22:00,
2013-11-05 09:27:00,47.9,32.1,30.54,East,90,3.8,3.8,54,0.00,,OVC024,0.00,VWS V14.01,2013-11-05 14:27:00,
2013-11-05 09:31:00,47.9,32.1,30.54,ENE,68,3.6,3.6,54,0.00,,OVC024,0.00,VWS V14.01,2013-11-05 14:31:00,
2013-11-05 09:36:00,47.7,31.9,30.54,ENE,68,4.5,4.5,54,0.00,,OVC024,0.00,VWS V14.01,2013-11-05 14:36:00,
2013-11-05 09:41:00,48.1,31.8,30.54,ENE,68,6.9,6.9,53,0.00,,OVC024,0.00,VWS V14.01,2013-11-05 14:41:00,
2013-11-05 09:46:00,48.6,32.7,30.53,ESE,112,4.0,4.0,54,0.00,,OVC024,0.00,VWS V14.01,2013-11-05 14:46:00,
2013-11-05 09:51:00,49.0,33.1,30.53,North,0,4.0,4.0,54,0.00,,OVC024,0.00,VWS V14.01,2013-11-05 14:51:00,
2013-11-05 09:56:00,49.5,33.1,30.53,NE,45,4.5,4.5,53,0.00,,OVC022,0.00,VWS V14.01,2013-11-05 14:56:00,
2013-11-05 10:01:00,49.9,34.4,30.53,NE,45,5.6,5.6,55,0.00,,OVC022,0.00,VWS V14.01,2013-11-05 15:01:00,
2013-11-05 10:06:00,50.0,34.5,30.53,ENE,68,5.1,5.1,55,0.00,,OVC022,0.00,VWS V14.01,2013-11-05 15:06:00,
2013-11-05 10:11:00,50.2,34.7,30.53,NE,45,5.4,5.4,55,0.00,,OVC022,0.00,VWS V14.01,2013-11-05 15:11:00,
2013-11-05 10:16:00,51.1,35.5,30.53,NNW,338,4.5,4.5,55,0.00,,OVC022,0.00,VWS V14.01,2013-11-05 15:16:00,
2013-11-05 10:21:00,51.8,36.6,30.53,North,0,3.3,3.3,56,0.00,,OVC022,0.00,VWS V14.01,2013-11-05 15:21:00,
2013-11-05 10:26:00,51.7,36.5,30.52,North,0,4.9,4.9,56,0.00,,OVC022,0.00,VWS V14.01,2013-11-05 15:26:00,
2013-11-05 10:31:00,51.5,36.3,30.53,NNE,22,2.2,2.2,56,0.00,,OVC022,0.00,VWS V14.01,2013-11-05 15:31:00,
2013-11-05 10:36:00,51.5,36.3,30.53,NNE,22,3.6,3.6,56,0.00,,OVC022,0.00,VWS V14.01,2013-11-05 15:36:00,
2013-11-05 10:41:00,51.7,36.5,30.53,NNE,22,4.9,4.9,56,0.00,,OVC022,0.00,VWS V14.01,2013-11-05 15:41:00,
2013-11-05 10:46:00,52.0,36.8,30.52,South,180,3.1,3.1,56,0.00,,OVC022,0.00,VWS V14.01,2013-11-05 15:46:00,
2013-11-05 10:51:00,52.4,37.2,30.53,ENE,68,4.2,4.2,56,0.00,,OVC022,0.00,VWS V14.01,2013-11-05 15:51:00,
2013-11-05 10:56:00,52.4,37.2,30.53,North,0,3.8,3.8,56,0.00,,OVC020,0.00,VWS V14.01,2013-11-05 15:56:00,
2013-11-05 11:01:00,52.2,37.0,30.52,NE,45,4.9,4.9,56,0.00,,OVC020,0.00,VWS V14.01,2013-11-05 16:01:00,
2013-11-05 11:06:00,52.2,37.0,30.52,NE,45,2.9,2.9,56,0.00,,OVC020,0.00,VWS V14.01,2013-11-05 16:06:00,
2013-11-05 11:11:00,52.4,36.7,30.52,ENE,68,3.8,3.8,55,0.00,,OVC020,0.00,VWS V14.01,2013-11-05 16:11:00,
2013-11-05 11:16:00,52.6,37.4,30.52,ENE,68,2.7,2.7,56,0.00,,OVC020,0.00,VWS V14.01,2013-11-05 16:16:00,
2013-11-05 11:21:00,52.9,37.2,30.52,NE,45,5.1,5.1,55,0.00,,OVC020,0.00,VWS V14.01,2013-11-05 16:21:00,
2013-11-05 11:26:00,52.9,37.7,30.52,NW,315,3.1,3.1,56,0.00,,OVC020,0.00,VWS V14.01,2013-11-05 16:26:00,
2013-11-05 11:31:00,52.7,37.5,30.51,NNE,22,3.3,3.3,56,0.00,,OVC020,0.00,VWS V14.01,2013-11-05 16:31:00,
2013-11-05 11:36:00,52.6,37.4,30.51,ENE,68,4.0,4.0,56,0.00,,OVC020,0.00,VWS V14.01,2013-11-05 16:36:00,
2013-11-05 11:41:00,52.2,37.0,30.51,ENE,68,3.1,5.8,56,0.00,,OVC020,0.00,VWS V14.01,2013-11-05 16:41:00,
2013-11-05 11:46:00,52.2,37.0,30.51,NNE,22,5.6,5.6,56,0.00,,OVC020,0.00,VWS V14.01,2013-11-05 16:46:00,
2013-11-05 11:51:00,52.7,37.0,30.50,SE,135,2.9,2.9,55,0.00,,OVC020,0.00,VWS V14.01,2013-11-05 16:51:00,
2013-11-05 11:56:00,53.5,38.2,30.50,North,0,3.1,3.1,56,0.00,,OVC018,0.00,VWS V14.01,2013-11-05 16:56:00,
2013-11-05 12:01:00,53.3,38.0,30.49,ENE,68,2.9,2.9,56,0.00,,OVC018,0.00,VWS V14.01,2013-11-05 17:01:00,
2013-11-05 12:06:00,53.5,38.2,30.49,NE,45,4.5,4.5,56,0.00,,OVC018,0.00,VWS V14.01,2013-11-05 17:06:00,
2013-11-05 12:11:00,53.5,37.8,30.49,NNE,22,3.8,3.8,55,0.00,,OVC018,0.00,VWS V14.01,2013-11-05 17:11:00,
2013-11-05 12:16:00,53.5,38.2,30.49,ENE,68,7.6,7.6,56,0.00,,OVC018,0.00,VWS V14.01,2013-11-05 17:16:00,
2013-11-05 12:21:00,53.6,38.3,30.48,ENE,68,7.6,7.6,56,0.00,,OVC018,0.00,VWS V14.01,2013-11-05 17:21:00,
2013-11-05 12:26:00,53.6,37.8,30.48,ENE,68,3.8,3.8,55,0.00,,OVC018,0.00,VWS V14.01,2013-11-05 17:26:00,
2013-11-05 12:31:00,54.0,38.2,30.48,ENE,68,6.7,6.7,55,0.00,,OVC018,0.00,VWS V14.01,2013-11-05 17:31:00,
2013-11-05 12:36:00,54.5,38.7,30.47,NE,45,2.2,4.0,55,0.00,,OVC018,0.00,VWS V14.01,2013-11-05 17:36:00,
2013-11-05 12:41:00,54.5,38.7,30.47,NNE,22,5.4,6.0,55,0.00,,OVC018,0.00,VWS V14.01,2013-11-05 17:41:00,
2013-11-05 12:46:00,54.5,38.7,30.47,SE,135,3.1,3.1,55,0.00,,OVC018,0.00,VWS V14.01,2013-11-05 17:46:00,
2013-11-05 12:51:00,54.7,38.9,30.46,NNW,338,3.1,3.1,55,0.00,,OVC018,0.00,VWS V14.01,2013-11-05 17:51:00,
2013-11-05 12:56:00,55.1,39.2,30.46,East,90,3.8,3.8,55,0.00,,OVC028,0.00,VWS V14.01,2013-11-05 17:56:00,
2013-11-05 13:01:00,55.4,39.5,30.46,North,0,8.3,8.3,55,0.00,,OVC028,0.00,VWS V14.01,2013-11-05 18:01:00,
2013-11-05 13:06:00,55.6,39.7,30.46,ENE,68,2.7,2.7,55,0.00,,OVC028,0.00,VWS V14.01,2013-11-05 18:06:00,
2013-11-05 13:11:00,55.4,39.5,30.45,NE,45,3.6,3.6,55,0.00,,OVC028,0.00,VWS V14.01,2013-11-05 18:11:00,
2013-11-05 13:16:00,56.2,40.3,30.45,NNE,22,4.2,4.2,55,0.00,,OVC028,0.00,VWS V14.01,2013-11-05 18:16:00,
2013-11-05 13:21:00,56.5,40.5,30.46,East,90,5.8,5.8,55,0.00,,OVC028,0.00,VWS V14.01,2013-11-05 18:21:00,
2013-11-05 13:26:00,56.5,40.5,30.46,NNW,338,4.2,4.2,55,0.00,,OVC028,0.00,VWS V14.01,2013-11-05 18:26:00,
2013-11-05 13:31:00,56.7,40.7,30.45,NE,45,5.4,5.4,55,0.00,,OVC028,0.00,VWS V14.01,2013-11-05 18:31:00,
2013-11-05 13:36:00,56.9,40.9,30.45,East,90,3.8,3.8,55,0.00,,OVC030,0.00,VWS V14.01,2013-11-05 18:36:00,
2013-11-05 13:41:00,57.2,40.7,30.46,West,270,3.8,3.8,54,0.00,,OVC030,0.00,VWS V14.01,2013-11-05 18:41:00,
2013-11-05 13:46:00,57.4,41.4,30.45,NE,45,4.5,4.5,55,0.00,,OVC030,0.00,VWS V14.01,2013-11-05 18:46:00,
2013-11-05 13:51:00,57.4,41.4,30.45,WNW,292,3.3,3.3,55,0.00,,OVC030,0.00,VWS V14.01,2013-11-05 18:51:00,
2013-11-05 13:56:00,57.2,41.2,30.45,NE,45,5.1,5.1,55,0.00,,OVC030,0.00,VWS V14.01,2013-11-05 18:56:00,
2013-11-05 14:01:00,57.2,41.2,30.45,NE,45,5.1,5.1,55,0.00,,OVC030,0.00,VWS V14.01,2013-11-05 19:01:00,
2013-11-05 14:06:00,56.9,40.9,30.45,North,0,2.2,2.2,55,0.00,,OVC030,0.00,VWS V14.01,2013-11-05 19:06:00,
2013-11-05 14:11:00,57.1,41.1,30.45,NW,315,4.5,4.5,55,0.00,,OVC030,0.00,VWS V14.01,2013-11-05 19:11:00,
2013-11-05 14:16:00,57.6,41.6,30.45,NE,45,6.3,6.3,55,0.00,,OVC030,0.00,VWS V14.01,2013-11-05 19:16:00,
2013-11-05 14:21:00,57.2,41.2,30.45,NNE,22,6.0,6.0,55,0.00,,OVC030,0.00,VWS V14.01,2013-11-05 19:21:00,
2013-11-05 14:26:00,56.9,40.9,30.45,NNE,22,2.0,2.5,55,0.00,,OVC030,0.00,VWS V14.01,2013-11-05 19:26:00,
2013-11-05 14:31:00,57.2,41.2,30.45,ESE,112,3.1,3.1,55,0.00,,OVC030,0.00,VWS V14.01,2013-11-05 19:31:00,
2013-11-05 14:36:00,57.8,42.2,30.44,ESE,112,5.4,5.4,56,0.00,,OVC030,0.00,VWS V14.01,2013-11-05 19:36:00,
2013-11-05 14:41:00,58.0,42.4,30.44,North,0,2.9,2.9,56,0.00,,OVC030,0.00,VWS V14.01,2013-11-05 19:41:00,
2013-11-05 14:46:00,58.1,42.5,30.44,WNW,292,2.4,2.4,56,0.00,,OVC030,0.00,VWS V14.01,2013-11-05 19:46:00,
2013-11-05 14:51:00,58.3,42.7,30.44,NE,45,6.9,6.9,56,0.00,,OVC030,0.00,VWS V14.01,2013-11-05 19:51:00,
2013-11-05 14:56:00,58.1,42.5,30.44,ENE,68,2.4,2.4,56,0.00,,OVC030,0.00,VWS V14.01,2013-11-05 19:56:00,
2013-11-05 15:01:00,58.3,42.7,30.44,NNW,338,3.6,3.6,56,0.00,,OVC030,0.00,VWS V14.01,2013-11-05 20:01:00,
2013-11-05 15:06:00,58.5,42.9,30.44,NNE,22,7.1,7.1,56,0.00,,OVC030,0.00,VWS V14.01,2013-11-05 20:06:00,
2013-11-05 15:11:00,58.7,43.1,30.44,NE,45,2.4,2.4,56,0.00,,OVC030,0.00,VWS V14.01,2013-11-05 20:11:00,
2013-11-05 15:16:00,59.0,42.9,30.44,NNE,22,5.6,5.6,55,0.00,,OVC030,0.00,VWS V14.01,2013-11-05 20:16:00,
2013-11-05 15:21:00,58.7,43.1,30.44,SW,225,2.2,2.2,56,0.00,,OVC030,0.00,VWS V14.01,2013-11-05 20:21:00,
2013-11-05 15:26:00,58.5,42.9,30.44,ENE,68,3.3,6.7,56,0.00,,OVC030,0.00,VWS V14.01,2013-11-05 20:26:00,
2013-11-05 15:31:00,58.3,42.7,30.44,East,90,2.7,2.7,56,0.00,,OVC030,0.00,VWS V14.01,2013-11-05 20:31:00,
2013-11-05 15:36:00,58.5,42.9,30.43,NE,45,8.3,8.3,56,0.00,,OVC030,0.00,VWS V14.01,2013-11-05 20:36:00,
2013-11-05 15:41:00,58.5,42.9,30.43,NNE,22,3.6,3.6,56,0.00,,OVC030,0.00,VWS V14.01,2013-11-05 20:41:00,
2013-11-05 15:46:00,58.5,42.4,30.43,ENE,68,4.5,4.5,55,0.00,,OVC030,0.00,VWS V14.01,2013-11-05 20:46:00,
2013-11-05 15:51:00,58.7,42.6,30.43,NNW,338,3.1,3.1,55,0.00,,OVC030,0.00,VWS V14.01,2013-11-05 20:51:00,
2013-11-05 15:56:00,58.9,42.8,30.43,ESE,112,2.4,2.4,55,0.00,,BKN250,0.00,VWS V14.01,2013-11-05 20:56:00,
2013-11-05 16:01:00,58.7,42.6,30.43,NE,45,2.9,2.9,55,0.00,,BKN250,0.00,VWS V14.01,2013-11-05 21:01:00,
2013-11-05 16:06:00,58.5,42.4,30.43,NNE,22,6.7,6.7,55,0.00,,BKN250,0.00,VWS V14.01,2013-11-05 21:06:00,
2013-11-05 16:11:00,58.5,41.9,30.43,NNE,22,4.5,4.5,54,0.00,,BKN250,0.00,VWS V14.01,2013-11-05 21:11:00,
2013-11-05 16:16:00,58.5,41.9,30.43,NNE,22,4.0,4.0,54,0.00,,BKN250,0.00,VWS V14.01,2013-11-05 21:16:00,
2013-11-05 16:21:00,58.3,41.8,30.43,ENE,68,4.5,4.5,54,0.00,,BKN250,0.00,VWS V14.01,2013-11-05 21:21:00,
2013-11-05 16:26:00,58.1,41.6,30.43,ENE,68,2.7,2.7,54,0.00,,BKN250,0.00,VWS V14.01,2013-11-05 21:26:00,
2013-11-05 16:31:00,58.1,41.6,30.43,NE,45,4.0,4.0,54,0.00,,BKN250,0.00,VWS V14.01,2013-11-05 21:31:00,
2013-11-05 16:36:00,58.1,41.6,30.43,NE,45,4.7,4.7,54,0.00,,BKN250,0.00,VWS V14.01,2013-11-05 21:36:00,
2013-11-05 16:41:00,58.0,41.5,30.43,NNE,22,5.1,5.1,54,0.00,,BKN250,0.00,VWS V14.01,2013-11-05 21:41:00,
2013-11-05 16:46:00,58.0,41.5,30.43,NNE,22,5.6,5.6,54,0.00,,BKN250,0.00,VWS V14.01,2013-11-05 21:46:00,
2013-11-05 16:51:00,58.0,41.5,30.43,ENE,68,3.8,3.8,54,0.00,,BKN250,0.00,VWS V14.01,2013-11-05 21:51:00,
2013-11-05 16:56:00,58.0,41.5,30.43,NNE,22,2.4,2.4,54,0.00,,BKN250,0.00,VWS V14.01,2013-11-05 21:56:00,
2013-11-05 17:01:00,58.0,41.5,30.43,NE,45,3.1,3.1,54,0.00,,BKN250,0.00,VWS V14.01,2013-11-05 22:01:00,
2013-11-05 17:06:00,58.0,41.5,30.43,ENE,68,2.2,2.2,54,0.00,,BKN250,0.00,VWS V14.01,2013-11-05 22:06:00,
2013-11-05 17:11:00,57.8,40.3,30.43,NNE,22,4.5,4.5,52,0.00,,BKN250,0.00,VWS V14.01,2013-11-05 22:11:00,
2013-11-05 17:16:00,57.8,39.8,30.43,ENE,68,2.7,2.7,51,0.00,,BKN250,0.00,VWS V14.01,2013-11-05 22:16:00,
2013-11-05 17:21:00,57.6,38.6,30.43,NNE,22,2.0,0.0,49,0.00,,BKN250,0.00,VWS V14.01,2013-11-05 22:21:00,
2013-11-05 17:26:00,57.6,38.1,30.43,ESE,112,2.7,2.7,48,0.00,,BKN250,0.00,VWS V14.01,2013-11-05 22:26:00,
2013-11-05 17:31:00,57.4,38.4,30.43,ENE,68,3.1,3.1,49,0.00,,BKN250,0.00,VWS V14.01,2013-11-05 22:31:00,
2013-11-05 17:36:00,57.4,38.9,30.43,NE,45,2.9,2.9,50,0.00,,BKN250,0.00,VWS V14.01,2013-11-05 22:36:00,
2013-11-05 17:41:00,57.2,39.2,30.43,NNE,22,4.2,4.2,51,0.00,,BKN250,0.00,VWS V14.01,2013-11-05 22:41:00,
2013-11-05 17:46:00,57.2,39.2,30.44,NE,45,2.0,0.0,51,0.00,,BKN250,0.00,VWS V14.01,2013-11-05 22:46:00,
2013-11-05 17:51:00,57.2,36.6,30.44,NNE,22,2.4,2.4,46,0.00,,BKN250,0.00,VWS V14.01,2013-11-05 22:51:00,
2013-11-05 17:56:00,57.2,36.1,30.43,NNE,22,3.6,3.6,45,0.00,,BKN250,0.00,VWS V14.01,2013-11-05 22:56:00,
2013-11-05 18:01:00,57.2,36.6,30.43,ENE,68,4.0,4.0,46,0.00,,BKN250,0.00,VWS V14.01,2013-11-05 23:01:00,
2013-11-05 18:06:00,57.1,34.8,30.44,ESE,112,3.6,3.6,43,0.00,,BKN250,0.00,VWS V14.01,2013-11-05 23:06:00,
2013-11-05 18:11:00,56.9,36.3,30.44,North,0,3.3,3.3,46,0.00,,BKN250,0.00,VWS V14.01,2013-11-05 23:11:00,
2013-11-05 18:16:00,56.9,35.8,30.44,ENE,68,3.1,3.1,45,0.00,,BKN250,0.00,VWS V14.01,2013-11-05 23:16:00,
2013-11-05 18:21:00,56.7,36.2,30.44,NNE,22,2.9,2.9,46,0.00,,BKN250,0.00,VWS V14.01,2013-11-05 23:21:00,
2013-11-05 18:26:00,56.5,35.4,30.45,NNE,22,4.7,4.7,45,0.00,,BKN250,0.00,VWS V14.01,2013-11-05 23:26:00,
2013-11-05 18:31:00,56.5,34.3,30.44,ENE,68,5.1,5.1,43,0.00,,BKN250,0.00,VWS V14.01,2013-11-05 23:31:00,
2013-11-05 18:36:00,56.2,34.0,30.44,NE,45,3.8,3.8,43,0.00,,BKN250,0.00,VWS V14.01,2013-11-05 23:36:00,
2013-11-05 18:41:00,56.2,32.8,30.45,NE,45,3.3,3.3,41,0.00,,BKN250,0.00,VWS V14.01,2013-11-05 23:41:00,
2013-11-05 18:46:00,56.0,30.1,30.44,ESE,112,3.1,3.1,37,0.00,,BKN250,0.00,VWS V14.01,2013-11-05 23:46:00,
2013-11-05 18:51:00,56.0,31.4,30.44,NE,45,2.4,2.4,39,0.00,,BKN250,0.00,VWS V14.01,2013-11-05 23:51:00,
2013-11-05 18:56:00,55.8,31.2,30.44,NE,45,3.1,3.1,39,0.00,,BKN250,0.00,VWS V14.01,2013-11-05 23:56:00,
2013-11-05 19:01:00,55.8,29.3,30.44,SSE,158,2.4,2.4,36,0.00,,OVC250,0.00,VWS V14.01,2013-11-06 00:01:00,
2013-11-05 19:06:00,55.8,29.9,30.44,ENE,68,2.4,2.4,37,0.00,,OVC250,0.00,VWS V14.01,2013-11-06 00:06:00,
2013-11-05 19:11:00,55.6,28.4,30.44,NNE,22,4.5,4.5,35,0.00,,OVC250,0.00,VWS V14.01,2013-11-06 00:11:00,
2013-11-05 19:16:00,55.6,29.1,30.44,NE,45,4.0,4.0,36,0.00,,OVC250,0.00,VWS V14.01,2013-11-06 00:16:00,
2013-11-05 19:21:00,55.6,27.0,30.44,ENE,68,4.0,4.0,33,0.00,,OVC250,0.00,VWS V14.01,2013-11-06 00:21:00,
2013-11-05 19:26:00,55.6,27.0,30.44,NE,45,3.6,3.6,33,0.00,,OVC250,0.00,VWS V14.01,2013-11-06 00:26:00,
2013-11-05 19:31:00,55.4,28.9,30.44,NE,45,3.1,3.1,36,0.00,,OVC250,0.00,VWS V14.01,2013-11-06 00:31:00,
2013-11-05 19:36:00,55.4,27.5,30.44,NNE,22,2.7,2.7,34,0.00,,OVC250,0.00,VWS V14.01,2013-11-06 00:36:00,
2013-11-05 19:41:00,55.4,27.5,30.44,NNE,22,2.0,0.0,34,0.00,,OVC250,0.00,VWS V14.01,2013-11-06 00:41:00,
2013-11-05 19:46:00,55.4,29.6,30.44,NE,45,2.0,0.0,37,0.00,,OVC250,0.00,VWS V14.01,2013-11-06 00:46:00,
2013-11-05 19:51:00,55.3,28.8,30.44,ENE,68,3.6,3.6,36,0.00,,OVC250,0.00,VWS V14.01,2013-11-06 00:51:00,
2013-11-05 19:56:00,55.4,28.9,30.44,NE,45,2.0,2.0,36,0.00,,OVC029,0.00,VWS V14.01,2013-11-06 00:56:00,
2013-11-05 20:01:00,55.3,28.8,30.44,NNE,22,3.8,3.8,36,0.00,,OVC029,0.00,VWS V14.01,2013-11-06 01:01:00,
2013-11-05 20:06:00,55.3,27.4,30.44,NNE,22,3.6,3.6,34,0.00,,OVC029,0.00,VWS V14.01,2013-11-06 01:06:00,
2013-11-05 20:11:00,55.3,26.7,30.44,NE,45,5.1,5.1,33,0.00,,OVC029,0.00,VWS V14.01,2013-11-06 01:11:00,
2013-11-05 20:16:00,55.1,25.8,30.44,NE,45,3.1,3.1,32,0.00,,OVC029,0.00,VWS V14.01,2013-11-06 01:16:00,
2013-11-05 20:21:00,55.1,25.8,30.44,NNE,22,2.9,2.9,32,0.00,,OVC029,0.00,VWS V14.01,2013-11-06 01:21:00,
2013-11-05 20:26:00,55.1,25.8,30.43,ENE,68,2.9,2.9,32,0.00,,OVC029,0.00,VWS V14.01,2013-11-06 01:26:00,
2013-11-05 20:31:00,55.1,25.0,30.44,NNE,22,2.0,0.0,31,0.00,,OVC029,0.00,VWS V14.01,2013-11-06 01:31:00,
2013-11-05 20:36:00,55.1,25.0,30.44,ESE,112,2.0,0.0,31,0.00,,OVC029,0.00,VWS V14.01,2013-11-06 01:36:00,
2013-11-05 20:41:00,55.1,25.0,30.44,North,0,3.8,3.8,31,0.00,,OVC029,0.00,VWS V14.01,2013-11-06 01:41:00,
2013-11-05 20:46:00,55.1,24.2,30.44,ENE,68,2.4,2.4,30,0.00,,OVC029,0.00,VWS V14.01,2013-11-06 01:46:00,
2013-11-05 20:51:00,55.1,22.6,30.44,East,90,4.5,4.5,28,0.00,,OVC029,0.00,VWS V14.01,2013-11-06 01:51:00,
2013-11-05 20:56:00,55.1,22.6,30.44,NE,45,2.4,2.4,28,0.00,,OVC041,0.00,VWS V14.01,2013-11-06 01:56:00,
2013-11-05 21:01:00,55.1,22.6,30.44,ENE,68,4.5,4.5,28,0.00,,OVC041,0.00,VWS V14.01,2013-11-06 02:01:00,
2013-11-05 21:06:00,55.1,22.6,30.44,NE,45,5.4,5.4,28,0.00,,OVC041,0.00,VWS V14.01,2013-11-06 02:06:00,
2013-11-05 21:10:00,55.1,23.4,30.44,ENE,68,3.6,3.6,29,0.00,,OVC041,0.00,VWS V14.01,2013-11-06 02:10:00,
2013-11-05 21:15:00,55.1,24.2,30.44,NE,45,5.4,5.4,30,0.00,,OVC041,0.00,VWS V14.01,2013-11-06 02:15:00,
2013-11-05 21:20:00,54.9,22.4,30.44,NE,45,4.5,4.5,28,0.00,,OVC041,0.00,VWS V14.01,2013-11-06 02:20:00,
2013-11-05 21:25:00,54.9,23.3,30.43,NE,45,2.2,2.2,29,0.00,,OVC041,0.00,VWS V14.01,2013-11-06 02:25:00,
2013-11-05 21:30:00,54.9,22.4,30.44,NE,45,4.0,4.0,28,0.00,,OVC044,0.00,VWS V14.01,2013-11-06 02:30:00,
2013-11-05 21:35:00,54.9,19.8,30.44,East,90,3.1,3.1,25,0.00,,OVC044,0.00,VWS V14.01,2013-11-06 02:35:00,
2013-11-05 21:40:00,54.9,21.6,30.44,NNE,22,2.9,2.9,27,0.00,,OVC044,0.00,VWS V14.01,2013-11-06 02:40:00,
2013-11-05 21:46:00,54.9,22.4,30.44,ENE,68,3.8,3.8,28,0.00,,OVC044,0.00,VWS V14.01,2013-11-06 02:46:00,
2013-11-05 21:50:00,54.9,22.4,30.44,NE,45,2.9,3.6,28,0.00,,OVC044,0.00,VWS V14.01,2013-11-06 02:50:00,
2013-11-05 21:55:00,54.9,19.8,30.44,ENE,68,2.0,2.0,25,0.00,,OVC048,0.00,VWS V14.01,2013-11-06 02:55:00,
2013-11-05 22:00:00,54.9,19.8,30.44,NNE,22,2.7,2.7,25,0.00,,OVC048,0.00,VWS V14.01,2013-11-06 03:00:00,
2013-11-05 22:05:00,54.9,21.6,30.45,ENE,68,5.4,5.4,27,0.00,,OVC048,0.00,VWS V14.01,2013-11-06 03:05:00,
2013-11-05 22:10:00,55.1,19.9,30.45,SSE,158,2.7,2.7,25,0.00,,OVC048,0.00,VWS V14.01,2013-11-06 03:10:00,
2013-11-05 22:15:00,55.1,19.9,30.45,ENE,68,3.6,3.6,25,0.00,,OVC048,0.00,VWS V14.01,2013-11-06 03:15:00,
2013-11-05 22:20:00,55.1,21.7,30.44,NNE,22,2.4,2.4,27,0.00,,OVC048,0.00,VWS V14.01,2013-11-06 03:20:00,
2013-11-05 22:25:00,54.9,18.8,30.44,NE,45,3.1,3.1,24,0.00,,OVC048,0.00,VWS V14.01,2013-11-06 03:25:00,
2013-11-05 22:30:00,55.1,19.0,30.44,ENE,68,2.9,2.9,24,0.00,,OVC048,0.00,VWS V14.01,2013-11-06 03:30:00,
2013-11-05 22:35:00,54.9,19.8,30.43,NE,45,2.9,2.9,25,0.00,,OVC048,0.00,VWS V14.01,2013-11-06 03:35:00,
2013-11-05 22:40:00,55.1,17.0,30.44,NNE,22,2.4,2.4,22,0.00,,OVC048,0.00,VWS V14.01,2013-11-06 03:40:00,
2013-11-05 22:45:00,54.9,17.8,30.44,ENE,68,2.0,0.0,23,0.00,,OVC048,0.00,VWS V14.01,2013-11-06 03:45:00,
2013-11-05 22:50:00,54.9,17.8,30.44,ENE,68,2.2,2.2,23,0.00,,OVC048,0.00,VWS V14.01,2013-11-06 03:50:00,
2013-11-05 22:55:00,54.9,17.8,30.44,NE,45,2.4,2.4,23,0.00,,OVC060,0.00,VWS V14.01,2013-11-06 03:55:00,
2013-11-05 23:00:00,54.9,14.6,30.43,NNE,22,2.0,0.0,20,0.00,,OVC060,0.00,VWS V14.01,2013-11-06 04:00:00,
2013-11-05 23:05:00,54.9,16.8,30.43,NNW,338,2.2,2.2,22,0.00,,OVC060,0.00,VWS V14.01,2013-11-06 04:05:00,
2013-11-05 23:10:00,54.9,15.7,30.43,NNE,22,2.4,2.4,21,0.00,,OVC060,0.00,VWS V14.01,2013-11-06 04:10:00,
2013-11-05 23:15:00,55.1,14.8,30.43,ENE,68,3.1,3.1,20,0.00,,OVC060,0.00,VWS V14.01,2013-11-06 04:15:00,
2013-11-05 23:20:00,54.9,14.6,30.43,ENE,68,3.3,3.3,20,0.00,,OVC060,0.00,VWS V14.01,2013-11-06 04:20:00,
2013-11-05 23:25:00,54.9,12.2,30.43,NE,45,3.1,3.1,18,0.00,,OVC060,0.00,VWS V14.01,2013-11-06 04:25:00,
2013-11-05 23:30:00,54.9,10.9,30.43,ENE,68,3.8,3.8,17,0.00,,OVC060,0.00,VWS V14.01,2013-11-06 04:30:00,
2013-11-05 23:35:00,55.1,9.7,30.43,ENE,68,3.3,3.3,16,0.00,,OVC060,0.00,VWS V14.01,2013-11-06 04:35:00,
2013-11-05 23:40:00,55.1,11.1,30.43,East,90,4.0,4.0,17,0.00,,OVC060,0.00,VWS V14.01,2013-11-06 04:40:00,
2013-11-05 23:45:00,55.1,11.1,30.42,ENE,68,3.8,3.8,17,0.00,,OVC060,0.00,VWS V14.01,2013-11-06 04:45:00,
2013-11-05 23:50:00,55.1,11.1,30.42,ENE,68,2.4,2.4,17,0.00,,OVC060,0.00,VWS V14.01,2013-11-06 04:50:00,
2013-11-05 23:55:00,55.1,9.7,30.42,NNE,22,2.0,2.0,16,0.00,,OVC060,0.00,VWS V14.01,2013-11-06 04:55:00,